Hovedside
METAR-TAF:

METAR-TAF

Lufthavner :

Macas, Ecuador

breddegrad: 02-17-57-S, lengdegrad: 078-07-15-W, høyde over havet: 1052 m

Gjeldene værobservasjon

Denne rapporten ble laget for 1 time og 1 minutter siden, klokken 14:00 UTC
Vind 5 kt fra Nordøst
Temperatur 24°C
Luftfuktighet 83%
Trykk 1019 hPa
Sikt 10 km eller mer
Få skyer i en høyde av 2300 ft

METAR: SEMC 041400Z 05005KT 9999 FEW023 24/21 Q1019 RMK A3010

Tid: 10:01 (15:01 UTC)


TAF: fraværende

Værobservasjoner og værvarsel for over 4000 flyplasser (METAR- og TAF-rapporter).

Tilgjengelige stasjoner er representert av de røde og gule prikkene på kartet.

Hold musepekeren over prikken for å se navnet på stasjonen.

Klikk så for å se værobservasjoner og -varsler.

For å forandre kartet kan du klikke på den grønne knappen med svart kryss for å zoome inn, på den grønne knappen med strek for å zoome ut, eller på de grønne pilene for å se tilstøtende kart.


METAR-TAF: